KPSK/PSK METAR and TAF weather

Enter ICAO airport designator
Station Type Date Time Source
KPSK METAR 2019/07/20 19:55 UTC NOAA

KPSK 201955Z AUTO 22007KT 10SM SCT050 34/20 A3007 RMK AO2 T03400203


Station Type Date Time Source
KPSK Decoded METAR 2019/07/20 19:55 UTC NOAA

Dublin / New River Valley, VA, United States (KPSK) 37-08N 080-41W
Jul 20, 2019 - 03:55 PM EDT / 2019.07.20 1955 UTC
Wind: from the SW (220 degrees) at 8 MPH (7 KT):0
Visibility: 10 mile(s):0
Sky conditions: partly cloudy
Temperature: 93.2 F (34.0 C)
Heat index: 97.7 F (36.5 C):1
Dew Point: 68.5 F (20.3 C)
Relative Humidity: 44%
Pressure (altimeter): 30.07 in. Hg (1018 hPa)
ob: KPSK 201955Z AUTO 22007KT 10SM SCT050 34/20 A3007 RMK AO2 T03400203
cycle: 20

Station Type Date Time Source
KPSK TAF UTC NOAA

Error!

Example: see airport list